IBE4CV LEMD-LEBL
Flight info
| Callsign | IBE4CV |
|---|---|
| Flight time | N/A |
| Altitude | 30000 |
| Route | PINAR N870 PONEN T600 CASPE |
| Aircraft | A20N/M-SDE2E3FGHIRWXY/LB1 |
Departure
| Time | 2026-05-05 17:15 |
|---|---|
| Airport | Adolfo Suárez Madrid–Barajas Airport (LEMD) |
Arrival
| Time | N/A |
|---|---|
| Airport | Josep Tarradellas Barcelona-El Prat Airport (LEBL) |
| Time | Latitude | Longitude | Altitude | Speed | Heading |
|---|---|---|---|---|---|
| 2026-05-05 16:57 | 40.48933 | -3.56369 | 1962 ft | 0 kts | 270° |
| 2026-05-05 17:06 | 40.48931 | -3.56371 | 1962 ft | 2 kts | 245° |
| 2026-05-05 17:07 | 40.48911 | -3.56384 | 1964 ft | 3 kts | 158° |
| 2026-05-05 17:07 | 40.48881 | -3.56344 | 1962 ft | 10 kts | 126° |
| 2026-05-05 17:07 | 40.48885 | -3.56289 | 1965 ft | 8 kts | 56° |
| 2026-05-05 17:07 | 40.48958 | -3.56243 | 1966 ft | 16 kts | 8° |
| 2026-05-05 17:08 | 40.49086 | -3.56258 | 1968 ft | 21 kts | 353° |
| 2026-05-05 17:08 | 40.49233 | -3.56249 | 1977 ft | 20 kts | 5° |
| 2026-05-05 17:08 | 40.49281 | -3.56244 | 1973 ft | 12 kts | 4° |
| 2026-05-05 17:08 | 40.49323 | -3.56243 | 1975 ft | 2 kts | 354° |
| 2026-05-05 17:09 | 40.49396 | -3.56244 | 1972 ft | 0 kts | 360° |
| 2026-05-05 17:09 | 40.49433 | -3.56245 | 1972 ft | 12 kts | 359° |
| 2026-05-05 17:09 | 40.49525 | -3.56246 | 1971 ft | 0 kts | 359° |
| 2026-05-05 17:10 | 40.49691 | -3.56248 | 1954 ft | 35 kts | 3° |
| 2026-05-05 17:10 | 40.49899 | -3.56239 | 1935 ft | 5 kts | 5° |
| 2026-05-05 17:10 | 40.49932 | -3.56237 | 1933 ft | 6 kts | 357° |
| 2026-05-05 17:11 | 40.50015 | -3.56246 | 1929 ft | 17 kts | 355° |
| 2026-05-05 17:11 | 40.50135 | -3.56257 | 1929 ft | 0 kts | 3° |
| 2026-05-05 17:11 | 40.50134 | -3.56257 | 1929 ft | 0 kts | 3° |
| 2026-05-05 17:11 | 40.50137 | -3.56253 | 1929 ft | 1 kts | 36° |
| 2026-05-05 17:12 | 40.50137 | -3.56210 | 1927 ft | 10 kts | 108° |
| 2026-05-05 17:12 | 40.50122 | -3.56083 | 1923 ft | 19 kts | 92° |
| 2026-05-05 17:12 | 40.50126 | -3.56048 | 1922 ft | 0 kts | 76° |
| 2026-05-05 17:14 | 40.50126 | -3.56047 | 1922 ft | 1 kts | 76° |
| 2026-05-05 17:14 | 40.50180 | -3.55942 | 1922 ft | 21 kts | 36° |
| 2026-05-05 17:15 | 40.50406 | -3.55932 | 1929 ft | 75 kts | 359° |
| 2026-05-05 17:15 | 40.51289 | -3.55911 | 1976 ft | 171 kts | 1° |
| 2026-05-05 17:15 | 40.52648 | -3.55793 | 2398 ft | 218 kts | 358° |
| 2026-05-05 17:15 | 40.54197 | -3.55610 | 3623 ft | 224 kts | 4° |
| 2026-05-05 17:16 | 40.55693 | -3.55528 | 5359 ft | 210 kts | 354° |
| 2026-05-05 17:16 | 40.57163 | -3.55636 | 6803 ft | 214 kts | 352° |
| 2026-05-05 17:16 | 40.58672 | -3.55753 | 8091 ft | 217 kts | 352° |
| 2026-05-05 17:16 | 40.60256 | -3.55829 | 9043 ft | 236 kts | 355° |
| 2026-05-05 17:17 | 40.61929 | -3.55855 | 10179 ft | 242 kts | 356° |
| 2026-05-05 17:17 | 40.63645 | -3.55609 | 11255 ft | 263 kts | 14° |
| 2026-05-05 17:17 | 40.65293 | -3.54314 | 12050 ft | 294 kts | 40° |
| 2026-05-05 17:17 | 40.66510 | -3.52010 | 12832 ft | 321 kts | 64° |
| 2026-05-05 17:18 | 40.67345 | -3.49157 | 13507 ft | 347 kts | 69° |
| 2026-05-05 17:18 | 40.68173 | -3.46052 | 14124 ft | 368 kts | 68° |
| 2026-05-05 17:18 | 40.69099 | -3.42919 | 15192 ft | 371 kts | 66° |
| 2026-05-05 17:18 | 40.70121 | -3.39765 | 16240 ft | 377 kts | 64° |
| 2026-05-05 17:19 | 40.71207 | -3.36598 | 17298 ft | 382 kts | 63° |
| 2026-05-05 17:19 | 40.72334 | -3.33396 | 18271 ft | 389 kts | 63° |
| 2026-05-05 17:19 | 40.73493 | -3.30129 | 19058 ft | 398 kts | 62° |
| 2026-05-05 17:19 | 40.74678 | -3.26790 | 19817 ft | 406 kts | 62° |
| 2026-05-05 17:20 | 40.75886 | -3.23376 | 20557 ft | 416 kts | 62° |
| 2026-05-05 17:20 | 40.77121 | -3.19882 | 21313 ft | 424 kts | 61° |
| 2026-05-05 17:20 | 40.78377 | -3.16318 | 22053 ft | 433 kts | 61° |
| 2026-05-05 17:20 | 40.79656 | -3.12681 | 22659 ft | 441 kts | 60° |
| 2026-05-05 17:21 | 40.80950 | -3.08995 | 22878 ft | 444 kts | 60° |
| 2026-05-05 17:21 | 40.82248 | -3.05290 | 22935 ft | 444 kts | 60° |
| 2026-05-05 17:21 | 40.83551 | -3.01572 | 22939 ft | 449 kts | 61° |
| 2026-05-05 17:22 | 40.86167 | -2.94083 | 22935 ft | 448 kts | 61° |
| 2026-05-05 17:22 | 40.87470 | -2.90351 | 22962 ft | 446 kts | 62° |
| 2026-05-05 17:22 | 40.88743 | -2.86698 | 22939 ft | 428 kts | 62° |
| 2026-05-05 17:22 | 40.89986 | -2.83126 | 22941 ft | 432 kts | 62° |
| 2026-05-05 17:23 | 40.91249 | -2.79502 | 22938 ft | 434 kts | 62° |
| 2026-05-05 17:23 | 40.92488 | -2.75934 | 22938 ft | 433 kts | 62° |
| 2026-05-05 17:23 | 40.93746 | -2.72306 | 22939 ft | 433 kts | 62° |
| 2026-05-05 17:23 | 40.95000 | -2.68686 | 22939 ft | 433 kts | 62° |
| 2026-05-05 17:24 | 40.96255 | -2.65063 | 22938 ft | 431 kts | 63° |
| 2026-05-05 17:24 | 40.97487 | -2.61463 | 22940 ft | 431 kts | 65° |
| 2026-05-05 17:24 | 40.98446 | -2.57803 | 22944 ft | 433 kts | 73° |
| 2026-05-05 17:24 | 40.99194 | -2.53835 | 22943 ft | 433 kts | 74° |
| 2026-05-05 17:25 | 40.99930 | -2.49967 | 22945 ft | 433 kts | 74° |
| 2026-05-05 17:25 | 41.00420 | -2.47407 | 22939 ft | 433 kts | 74° |
| 2026-05-05 17:25 | 41.01411 | -2.42234 | 22946 ft | 433 kts | 74° |
| 2026-05-05 17:25 | 41.02150 | -2.38364 | 22948 ft | 433 kts | 74° |
| 2026-05-05 17:26 | 41.02886 | -2.34492 | 22948 ft | 434 kts | 74° |
| 2026-05-05 17:26 | 41.03620 | -2.30619 | 22950 ft | 433 kts | 74° |
| 2026-05-05 17:26 | 41.04353 | -2.26751 | 22947 ft | 433 kts | 75° |
| 2026-05-05 17:26 | 41.05084 | -2.22889 | 22947 ft | 433 kts | 75° |
| 2026-05-05 17:27 | 41.05813 | -2.19016 | 22948 ft | 433 kts | 75° |
| 2026-05-05 17:27 | 41.06540 | -2.15145 | 22945 ft | 433 kts | 75° |
| 2026-05-05 17:27 | 41.07264 | -2.11278 | 22944 ft | 433 kts | 75° |
| 2026-05-05 17:27 | 41.07990 | -2.07398 | 22948 ft | 434 kts | 75° |
| 2026-05-05 17:28 | 41.08719 | -2.03495 | 23357 ft | 439 kts | 75° |
| 2026-05-05 17:28 | 41.09454 | -1.99550 | 24125 ft | 444 kts | 75° |
| 2026-05-05 17:28 | 41.10200 | -1.95539 | 24710 ft | 452 kts | 75° |
| 2026-05-05 17:28 | 41.10957 | -1.91462 | 25298 ft | 460 kts | 75° |
| 2026-05-05 17:29 | 41.11726 | -1.87317 | 25941 ft | 465 kts | 76° |
| 2026-05-05 17:29 | 41.12495 | -1.83157 | 26724 ft | 467 kts | 76° |
| 2026-05-05 17:29 | 41.13274 | -1.78932 | 27211 ft | 476 kts | 76° |
| 2026-05-05 17:29 | 41.14064 | -1.74637 | 27742 ft | 482 kts | 76° |
| 2026-05-05 17:30 | 41.14862 | -1.70283 | 28261 ft | 489 kts | 76° |
| 2026-05-05 17:30 | 41.15670 | -1.65871 | 28784 ft | 495 kts | 76° |
| 2026-05-05 17:30 | 41.16487 | -1.61399 | 29236 ft | 502 kts | 76° |
| 2026-05-05 17:30 | 41.17314 | -1.56865 | 29713 ft | 508 kts | 76° |
| 2026-05-05 17:31 | 41.18144 | -1.52300 | 29904 ft | 511 kts | 76° |
| 2026-05-05 17:31 | 41.19810 | -1.43112 | 29928 ft | 511 kts | 76° |
| 2026-05-05 17:32 | 41.21463 | -1.33933 | 29938 ft | 511 kts | 76° |
| 2026-05-05 17:32 | 41.23111 | -1.24743 | 29935 ft | 511 kts | 76° |
| 2026-05-05 17:33 | 41.24751 | -1.15554 | 29930 ft | 511 kts | 76° |
| 2026-05-05 17:33 | 41.26392 | -1.06329 | 29927 ft | 513 kts | 77° |
| 2026-05-05 17:34 | 41.27760 | -0.98586 | 29927 ft | 513 kts | 77° |
| 2026-05-05 17:34 | 41.29384 | -0.89349 | 29920 ft | 513 kts | 77° |
| 2026-05-05 17:35 | 41.31005 | -0.80093 | 29921 ft | 514 kts | 77° |
| 2026-05-05 17:35 | 41.32610 | -0.70886 | 29916 ft | 516 kts | 78° |
| 2026-05-05 17:36 | 41.34224 | -0.61581 | 29920 ft | 516 kts | 78° |
| 2026-05-05 17:36 | 41.34953 | -0.52162 | 29908 ft | 501 kts | 95° |
| 2026-05-05 17:37 | 41.34074 | -0.42994 | 29909 ft | 508 kts | 102° |
| 2026-05-05 17:37 | 41.33025 | -0.33647 | 29908 ft | 507 kts | 102° |
| 2026-05-05 17:38 | 41.31980 | -0.24379 | 29908 ft | 507 kts | 102° |
| 2026-05-05 17:38 | 41.30929 | -0.15165 | 29909 ft | 507 kts | 103° |
| 2026-05-05 17:39 | 41.29863 | -0.05894 | 29906 ft | 507 kts | 103° |
| 2026-05-05 17:39 | 41.28789 | 0.03383 | 29904 ft | 509 kts | 103° |
| 2026-05-05 17:40 | 41.27704 | 0.12679 | 29909 ft | 508 kts | 103° |
| 2026-05-05 17:40 | 41.26602 | 0.22031 | 29906 ft | 508 kts | 104° |
| 2026-05-05 17:41 | 41.25446 | 0.31226 | 29910 ft | 508 kts | 104° |
| 2026-05-05 17:41 | 41.24262 | 0.40486 | 29911 ft | 510 kts | 104° |
| 2026-05-05 17:42 | 41.23061 | 0.49866 | 29906 ft | 511 kts | 105° |
| 2026-05-05 17:42 | 41.21240 | 0.58850 | 29914 ft | 496 kts | 122° |
| 2026-05-05 17:42 | 41.19507 | 0.62740 | 29912 ft | 483 kts | 135° |
| 2026-05-05 17:43 | 41.17352 | 0.66001 | 29908 ft | 473 kts | 144° |
| 2026-05-05 17:43 | 41.12561 | 0.71922 | 29874 ft | 470 kts | 146° |
| 2026-05-05 17:44 | 41.07811 | 0.77956 | 29898 ft | 473 kts | 146° |
| 2026-05-05 17:44 | 41.03155 | 0.84104 | 29850 ft | 473 kts | 145° |
| 2026-05-05 17:44 | 41.00854 | 0.87229 | 29580 ft | 476 kts | 141° |
| 2026-05-05 17:45 | 40.98913 | 0.90839 | 29295 ft | 489 kts | 128° |
| 2026-05-05 17:45 | 40.97512 | 0.94993 | 29015 ft | 501 kts | 116° |
| 2026-05-05 17:45 | 40.96668 | 0.99506 | 28743 ft | 506 kts | 108° |
| 2026-05-05 17:45 | 40.96034 | 1.04077 | 28405 ft | 504 kts | 106° |
| 2026-05-05 17:46 | 40.95429 | 1.08631 | 27793 ft | 501 kts | 106° |
| 2026-05-05 17:46 | 40.94814 | 1.13109 | 27306 ft | 490 kts | 107° |
| 2026-05-05 17:46 | 40.94188 | 1.17488 | 26890 ft | 476 kts | 108° |
| 2026-05-05 17:46 | 40.93570 | 1.21699 | 26703 ft | 458 kts | 108° |
| 2026-05-05 17:47 | 40.92963 | 1.25754 | 26530 ft | 441 kts | 108° |
| 2026-05-05 17:47 | 40.92371 | 1.29661 | 26377 ft | 426 kts | 109° |
| 2026-05-05 17:47 | 40.91797 | 1.33429 | 26236 ft | 411 kts | 109° |
| 2026-05-05 17:47 | 40.91241 | 1.37070 | 26105 ft | 397 kts | 109° |
| 2026-05-05 17:48 | 40.90701 | 1.40583 | 25983 ft | 384 kts | 110° |
| 2026-05-05 17:48 | 40.90176 | 1.43989 | 25841 ft | 371 kts | 110° |
| 2026-05-05 17:48 | 40.89668 | 1.47282 | 25680 ft | 360 kts | 110° |
| 2026-05-05 17:48 | 40.89177 | 1.50471 | 25571 ft | 349 kts | 111° |
| 2026-05-05 17:49 | 40.88701 | 1.53561 | 25450 ft | 337 kts | 111° |
| 2026-05-05 17:49 | 40.88242 | 1.56538 | 25357 ft | 325 kts | 111° |
| 2026-05-05 17:49 | 40.87799 | 1.59432 | 25203 ft | 319 kts | 111° |
| 2026-05-05 17:49 | 40.87358 | 1.62313 | 25061 ft | 321 kts | 111° |
| 2026-05-05 17:50 | 40.86921 | 1.65156 | 24921 ft | 320 kts | 111° |
| 2026-05-05 17:50 | 40.86476 | 1.68036 | 24771 ft | 320 kts | 111° |
| 2026-05-05 17:50 | 40.86202 | 1.70973 | 24604 ft | 330 kts | 93° |
| 2026-05-05 17:50 | 40.86719 | 1.73966 | 24237 ft | 340 kts | 66° |
| 2026-05-05 17:51 | 40.88027 | 1.76562 | 23596 ft | 343 kts | 41° |
| 2026-05-05 17:51 | 40.89865 | 1.78613 | 22978 ft | 348 kts | 31° |
| 2026-05-05 17:51 | 40.91829 | 1.80483 | 22404 ft | 349 kts | 31° |
| 2026-05-05 17:51 | 40.93793 | 1.82409 | 21596 ft | 354 kts | 33° |
| 2026-05-05 17:52 | 40.95740 | 1.84440 | 20767 ft | 360 kts | 35° |
| 2026-05-05 17:52 | 40.97687 | 1.86561 | 19890 ft | 364 kts | 37° |